sensor_id;sensor_type;location;lat;lon;timestamp;P1;durP1;ratioP1;P2;durP2;ratioP2
30307;SDS011;17114;52.314;8.910;2023-08-20T00:01:22;18.50;;;10.02;;
30307;SDS011;17114;52.314;8.910;2023-08-20T00:03:51;16.73;;;9.43;;
30307;SDS011;17114;52.314;8.910;2023-08-20T00:06:19;16.17;;;8.45;;
30307;SDS011;17114;52.314;8.910;2023-08-20T00:08:46;13.65;;;8.10;;
30307;SDS011;17114;52.314;8.910;2023-08-20T00:11:14;13.68;;;7.35;;
30307;SDS011;17114;52.314;8.910;2023-08-20T00:13:41;12.02;;;6.97;;
30307;SDS011;17114;52.314;8.910;2023-08-20T00:16:09;15.68;;;7.72;;
30307;SDS011;17114;52.314;8.910;2023-08-20T00:18:37;9.80;;;6.85;;
30307;SDS011;17114;52.314;8.910;2023-08-20T00:21:05;9.05;;;5.80;;
30307;SDS011;17114;52.314;8.910;2023-08-20T00:23:32;12.10;;;6.13;;
30307;SDS011;17114;52.314;8.910;2023-08-20T00:26:00;13.18;;;6.03;;
30307;SDS011;17114;52.314;8.910;2023-08-20T00:28:28;12.95;;;6.22;;
30307;SDS011;17114;52.314;8.910;2023-08-20T00:30:55;9.88;;;5.63;;
30307;SDS011;17114;52.314;8.910;2023-08-20T00:33:22;11.80;;;6.05;;
30307;SDS011;17114;52.314;8.910;2023-08-20T00:35:49;12.20;;;5.90;;
30307;SDS011;17114;52.314;8.910;2023-08-20T00:38:17;11.25;;;5.75;;
30307;SDS011;17114;52.314;8.910;2023-08-20T00:40:44;12.65;;;6.53;;
30307;SDS011;17114;52.314;8.910;2023-08-20T00:43:11;9.40;;;6.07;;
30307;SDS011;17114;52.314;8.910;2023-08-20T00:45:40;14.27;;;5.90;;
30307;SDS011;17114;52.314;8.910;2023-08-20T00:48:07;10.88;;;5.32;;
30307;SDS011;17114;52.314;8.910;2023-08-20T00:50:35;10.18;;;5.15;;
30307;SDS011;17114;52.314;8.910;2023-08-20T00:53:02;9.93;;;5.72;;
30307;SDS011;17114;52.314;8.910;2023-08-20T00:55:29;10.88;;;4.95;;
30307;SDS011;17114;52.314;8.910;2023-08-20T00:57:56;8.77;;;5.60;;
30307;SDS011;17114;52.314;8.910;2023-08-20T01:00:23;11.18;;;5.38;;
30307;SDS011;17114;52.314;8.910;2023-08-20T01:02:50;9.20;;;4.97;;
30307;SDS011;17114;52.314;8.910;2023-08-20T01:05:18;11.23;;;5.30;;
30307;SDS011;17114;52.314;8.910;2023-08-20T01:13:21;8.82;;;5.28;;
30307;SDS011;17114;52.314;8.910;2023-08-20T01:15:48;9.52;;;5.22;;
30307;SDS011;17114;52.314;8.910;2023-08-20T01:18:15;13.25;;;5.97;;
30307;SDS011;17114;52.314;8.910;2023-08-20T01:20:45;7.43;;;5.28;;
30307;SDS011;17114;52.314;8.910;2023-08-20T01:28:36;7.63;;;5.00;;
30307;SDS011;17114;52.314;8.910;2023-08-20T01:31:05;7.78;;;4.70;;
30307;SDS011;17114;52.314;8.910;2023-08-20T01:33:34;8.98;;;5.25;;
30307;SDS011;17114;52.314;8.910;2023-08-20T01:36:01;10.70;;;5.07;;
30307;SDS011;17114;52.314;8.910;2023-08-20T01:38:28;9.55;;;6.20;;
30307;SDS011;17114;52.314;8.910;2023-08-20T01:40:55;10.23;;;5.25;;
30307;SDS011;17114;52.314;8.910;2023-08-20T01:43:22;7.85;;;4.90;;
30307;SDS011;17114;52.314;8.910;2023-08-20T01:45:49;9.05;;;5.35;;
30307;SDS011;17114;52.314;8.910;2023-08-20T01:48:16;8.80;;;5.53;;
30307;SDS011;17114;52.314;8.910;2023-08-20T01:50:43;9.45;;;6.05;;
30307;SDS011;17114;52.314;8.910;2023-08-20T01:53:12;8.38;;;5.43;;
30307;SDS011;17114;52.314;8.910;2023-08-20T01:55:38;8.88;;;5.30;;
30307;SDS011;17114;52.314;8.910;2023-08-20T01:58:05;13.27;;;5.93;;
30307;SDS011;17114;52.314;8.910;2023-08-20T02:00:32;11.57;;;5.95;;
30307;SDS011;17114;52.314;8.910;2023-08-20T02:03:00;9.73;;;5.65;;
30307;SDS011;17114;52.314;8.910;2023-08-20T02:05:27;7.57;;;4.68;;
30307;SDS011;17114;52.314;8.910;2023-08-20T02:07:53;9.55;;;5.88;;
30307;SDS011;17114;52.314;8.910;2023-08-20T02:10:20;9.05;;;5.55;;
30307;SDS011;17114;52.314;8.910;2023-08-20T02:12:47;8.23;;;5.25;;
30307;SDS011;17114;52.314;8.910;2023-08-20T02:15:14;12.00;;;5.97;;
30307;SDS011;17114;52.314;8.910;2023-08-20T02:17:41;12.45;;;6.03;;
30307;SDS011;17114;52.314;8.910;2023-08-20T02:20:08;8.75;;;5.30;;
30307;SDS011;17114;52.314;8.910;2023-08-20T02:22:38;10.10;;;5.22;;
30307;SDS011;17114;52.314;8.910;2023-08-20T02:25:05;7.97;;;5.15;;
30307;SDS011;17114;52.314;8.910;2023-08-20T02:27:32;9.13;;;5.57;;
30307;SDS011;17114;52.314;8.910;2023-08-20T02:30:00;9.25;;;5.78;;
30307;SDS011;17114;52.314;8.910;2023-08-20T02:32:27;8.75;;;6.10;;
30307;SDS011;17114;52.314;8.910;2023-08-20T02:34:54;11.10;;;6.35;;
30307;SDS011;17114;52.314;8.910;2023-08-20T02:37:21;15.15;;;7.40;;
30307;SDS011;17114;52.314;8.910;2023-08-20T02:39:48;14.23;;;7.40;;
30307;SDS011;17114;52.314;8.910;2023-08-20T02:42:15;11.23;;;6.57;;
30307;SDS011;17114;52.314;8.910;2023-08-20T02:44:42;12.25;;;6.18;;
30307;SDS011;17114;52.314;8.910;2023-08-20T02:47:08;9.07;;;6.00;;
30307;SDS011;17114;52.314;8.910;2023-08-20T02:49:35;14.75;;;7.32;;
30307;SDS011;17114;52.314;8.910;2023-08-20T02:52:02;11.00;;;6.70;;
30307;SDS011;17114;52.314;8.910;2023-08-20T02:54:29;17.30;;;6.72;;
30307;SDS011;17114;52.314;8.910;2023-08-20T02:56:58;10.95;;;6.65;;
30307;SDS011;17114;52.314;8.910;2023-08-20T02:59:25;12.27;;;5.97;;
30307;SDS011;17114;52.314;8.910;2023-08-20T03:01:52;11.80;;;6.85;;
30307;SDS011;17114;52.314;8.910;2023-08-20T03:04:19;7.80;;;5.25;;
30307;SDS011;17114;52.314;8.910;2023-08-20T03:06:46;8.57;;;5.63;;
30307;SDS011;17114;52.314;8.910;2023-08-20T03:09:13;8.75;;;5.90;;
30307;SDS011;17114;52.314;8.910;2023-08-20T03:11:40;10.95;;;6.20;;
30307;SDS011;17114;52.314;8.910;2023-08-20T03:14:07;7.72;;;5.70;;
30307;SDS011;17114;52.314;8.910;2023-08-20T03:16:34;8.60;;;5.53;;
30307;SDS011;17114;52.314;8.910;2023-08-20T03:19:00;8.75;;;5.55;;
30307;SDS011;17114;52.314;8.910;2023-08-20T03:21:28;11.68;;;7.10;;
30307;SDS011;17114;52.314;8.910;2023-08-20T03:23:55;8.65;;;5.95;;
30307;SDS011;17114;52.314;8.910;2023-08-20T03:26:22;12.52;;;6.32;;
30307;SDS011;17114;52.314;8.910;2023-08-20T03:28:49;12.73;;;5.97;;
30307;SDS011;17114;52.314;8.910;2023-08-20T03:31:16;12.65;;;5.68;;
30307;SDS011;17114;52.314;8.910;2023-08-20T03:33:43;10.13;;;5.80;;
30307;SDS011;17114;52.314;8.910;2023-08-20T03:36:10;12.60;;;6.63;;
30307;SDS011;17114;52.314;8.910;2023-08-20T03:38:37;11.13;;;6.78;;
30307;SDS011;17114;52.314;8.910;2023-08-20T03:41:03;10.05;;;6.80;;
30307;SDS011;17114;52.314;8.910;2023-08-20T03:43:30;11.50;;;7.68;;
30307;SDS011;17114;52.314;8.910;2023-08-20T03:45:57;11.00;;;5.85;;
30307;SDS011;17114;52.314;8.910;2023-08-20T03:48:24;12.32;;;6.70;;
30307;SDS011;17114;52.314;8.910;2023-08-20T03:50:51;15.43;;;7.40;;
30307;SDS011;17114;52.314;8.910;2023-08-20T03:53:18;9.88;;;6.57;;
30307;SDS011;17114;52.314;8.910;2023-08-20T03:55:48;14.32;;;7.40;;
30307;SDS011;17114;52.314;8.910;2023-08-20T03:58:16;10.45;;;6.22;;
30307;SDS011;17114;52.314;8.910;2023-08-20T04:00:43;10.57;;;6.32;;
30307;SDS011;17114;52.314;8.910;2023-08-20T04:03:10;13.30;;;7.80;;
30307;SDS011;17114;52.314;8.910;2023-08-20T04:05:38;11.43;;;7.38;;
30307;SDS011;17114;52.314;8.910;2023-08-20T04:08:05;13.68;;;7.78;;
30307;SDS011;17114;52.314;8.910;2023-08-20T04:10:33;12.65;;;7.28;;
30307;SDS011;17114;52.314;8.910;2023-08-20T04:13:00;8.98;;;5.68;;
30307;SDS011;17114;52.314;8.910;2023-08-20T04:15:26;9.63;;;6.05;;
30307;SDS011;17114;52.314;8.910;2023-08-20T04:17:54;9.77;;;6.10;;
30307;SDS011;17114;52.314;8.910;2023-08-20T04:20:21;8.43;;;6.05;;
30307;SDS011;17114;52.314;8.910;2023-08-20T04:22:47;9.93;;;6.22;;
30307;SDS011;17114;52.314;8.910;2023-08-20T04:25:15;12.88;;;6.93;;
30307;SDS011;17114;52.314;8.910;2023-08-20T04:27:42;13.80;;;7.22;;
30307;SDS011;17114;52.314;8.910;2023-08-20T04:30:09;9.23;;;6.68;;
30307;SDS011;17114;52.314;8.910;2023-08-20T04:32:36;17.77;;;7.90;;
30307;SDS011;17114;52.314;8.910;2023-08-20T04:35:03;11.77;;;7.15;;
30307;SDS011;17114;52.314;8.910;2023-08-20T04:37:30;14.10;;;7.50;;
30307;SDS011;17114;52.314;8.910;2023-08-20T04:39:57;11.45;;;7.10;;
30307;SDS011;17114;52.314;8.910;2023-08-20T04:42:24;11.05;;;7.10;;
30307;SDS011;17114;52.314;8.910;2023-08-20T04:44:50;15.25;;;7.30;;
30307;SDS011;17114;52.314;8.910;2023-08-20T04:47:17;12.80;;;7.78;;
30307;SDS011;17114;52.314;8.910;2023-08-20T04:49:44;15.82;;;7.65;;
30307;SDS011;17114;52.314;8.910;2023-08-20T04:52:11;14.60;;;8.07;;
30307;SDS011;17114;52.314;8.910;2023-08-20T04:54:38;12.35;;;6.70;;
30307;SDS011;17114;52.314;8.910;2023-08-20T04:57:05;13.55;;;6.43;;
30307;SDS011;17114;52.314;8.910;2023-08-20T04:59:32;13.77;;;8.02;;
30307;SDS011;17114;52.314;8.910;2023-08-20T05:01:58;12.60;;;7.63;;
30307;SDS011;17114;52.314;8.910;2023-08-20T05:04:25;16.48;;;7.13;;
30307;SDS011;17114;52.314;8.910;2023-08-20T05:06:52;12.75;;;7.05;;
30307;SDS011;17114;52.314;8.910;2023-08-20T05:09:19;12.88;;;6.97;;
30307;SDS011;17114;52.314;8.910;2023-08-20T05:11:46;15.75;;;6.82;;
30307;SDS011;17114;52.314;8.910;2023-08-20T05:14:12;12.70;;;6.30;;
30307;SDS011;17114;52.314;8.910;2023-08-20T05:16:39;13.50;;;6.30;;
30307;SDS011;17114;52.314;8.910;2023-08-20T05:19:06;12.15;;;6.03;;
30307;SDS011;17114;52.314;8.910;2023-08-20T05:21:33;12.70;;;6.65;;
30307;SDS011;17114;52.314;8.910;2023-08-20T05:24:00;10.38;;;5.93;;
30307;SDS011;17114;52.314;8.910;2023-08-20T05:26:26;9.77;;;5.45;;
30307;SDS011;17114;52.314;8.910;2023-08-20T05:28:53;12.52;;;5.03;;
30307;SDS011;17114;52.314;8.910;2023-08-20T05:31:21;12.20;;;5.57;;
30307;SDS011;17114;52.314;8.910;2023-08-20T05:33:47;15.52;;;5.30;;
30307;SDS011;17114;52.314;8.910;2023-08-20T05:36:14;8.57;;;4.85;;
30307;SDS011;17114;52.314;8.910;2023-08-20T05:38:41;12.35;;;4.85;;
30307;SDS011;17114;52.314;8.910;2023-08-20T05:41:09;12.02;;;5.05;;
30307;SDS011;17114;52.314;8.910;2023-08-20T05:43:36;8.00;;;4.32;;
30307;SDS011;17114;52.314;8.910;2023-08-20T05:46:02;6.53;;;3.85;;
30307;SDS011;17114;52.314;8.910;2023-08-20T05:48:29;10.00;;;4.40;;
30307;SDS011;17114;52.314;8.910;2023-08-20T05:50:56;8.73;;;4.50;;
30307;SDS011;17114;52.314;8.910;2023-08-20T05:53:23;9.52;;;4.03;;
30307;SDS011;17114;52.314;8.910;2023-08-20T05:55:50;11.38;;;3.58;;
30307;SDS011;17114;52.314;8.910;2023-08-20T05:58:17;10.57;;;4.10;;
30307;SDS011;17114;52.314;8.910;2023-08-20T06:00:44;7.10;;;3.65;;
30307;SDS011;17114;52.314;8.910;2023-08-20T06:03:11;8.15;;;4.95;;
30307;SDS011;17114;52.314;8.910;2023-08-20T06:05:37;8.00;;;4.85;;
30307;SDS011;17114;52.314;8.910;2023-08-20T06:08:04;8.75;;;4.10;;
30307;SDS011;17114;52.314;8.910;2023-08-20T06:10:32;10.93;;;4.05;;
30307;SDS011;17114;52.314;8.910;2023-08-20T06:12:59;10.25;;;4.75;;
30307;SDS011;17114;52.314;8.910;2023-08-20T06:15:26;12.27;;;4.03;;
30307;SDS011;17114;52.314;8.910;2023-08-20T06:17:52;6.03;;;3.90;;
30307;SDS011;17114;52.314;8.910;2023-08-20T06:20:19;10.70;;;4.80;;
30307;SDS011;17114;52.314;8.910;2023-08-20T06:22:46;8.07;;;4.78;;
30307;SDS011;17114;52.314;8.910;2023-08-20T06:25:13;6.32;;;4.13;;
30307;SDS011;17114;52.314;8.910;2023-08-20T06:27:41;7.00;;;4.43;;
30307;SDS011;17114;52.314;8.910;2023-08-20T06:30:08;7.45;;;3.88;;
30307;SDS011;17114;52.314;8.910;2023-08-20T06:32:35;9.48;;;3.92;;
30307;SDS011;17114;52.314;8.910;2023-08-20T06:35:02;10.20;;;3.92;;
30307;SDS011;17114;52.314;8.910;2023-08-20T06:37:29;8.95;;;4.53;;
30307;SDS011;17114;52.314;8.910;2023-08-20T06:39:56;7.97;;;4.18;;
30307;SDS011;17114;52.314;8.910;2023-08-20T06:42:23;8.27;;;4.13;;
30307;SDS011;17114;52.314;8.910;2023-08-20T06:44:50;6.13;;;3.70;;
30307;SDS011;17114;52.314;8.910;2023-08-20T06:47:17;7.68;;;4.50;;
30307;SDS011;17114;52.314;8.910;2023-08-20T06:49:44;6.32;;;3.75;;
30307;SDS011;17114;52.314;8.910;2023-08-20T06:52:11;5.95;;;3.15;;
30307;SDS011;17114;52.314;8.910;2023-08-20T06:54:38;7.35;;;3.40;;
30307;SDS011;17114;52.314;8.910;2023-08-20T06:57:05;5.28;;;2.97;;
30307;SDS011;17114;52.314;8.910;2023-08-20T06:59:33;7.55;;;3.55;;
30307;SDS011;17114;52.314;8.910;2023-08-20T07:01:59;8.68;;;3.28;;
30307;SDS011;17114;52.314;8.910;2023-08-20T07:04:26;7.53;;;3.67;;
30307;SDS011;17114;52.314;8.910;2023-08-20T07:06:53;6.20;;;3.17;;
30307;SDS011;17114;52.314;8.910;2023-08-20T07:09:20;6.60;;;3.10;;
30307;SDS011;17114;52.314;8.910;2023-08-20T07:11:47;10.35;;;3.20;;
30307;SDS011;17114;52.314;8.910;2023-08-20T07:14:14;7.30;;;2.95;;
30307;SDS011;17114;52.314;8.910;2023-08-20T07:16:41;7.15;;;3.20;;
30307;SDS011;17114;52.314;8.910;2023-08-20T07:19:08;6.30;;;3.70;;
30307;SDS011;17114;52.314;8.910;2023-08-20T07:21:35;8.70;;;3.22;;
30307;SDS011;17114;52.314;8.910;2023-08-20T07:24:02;9.57;;;3.75;;
30307;SDS011;17114;52.314;8.910;2023-08-20T07:26:29;7.93;;;2.83;;
30307;SDS011;17114;52.314;8.910;2023-08-20T07:28:56;6.60;;;2.70;;
30307;SDS011;17114;52.314;8.910;2023-08-20T07:31:23;7.90;;;2.80;;
30307;SDS011;17114;52.314;8.910;2023-08-20T07:33:55;4.63;;;2.53;;
30307;SDS011;17114;52.314;8.910;2023-08-20T07:36:23;6.97;;;2.72;;
30307;SDS011;17114;52.314;8.910;2023-08-20T07:38:51;6.90;;;3.33;;
30307;SDS011;17114;52.314;8.910;2023-08-20T07:41:19;7.28;;;3.40;;
30307;SDS011;17114;52.314;8.910;2023-08-20T07:43:46;7.05;;;3.72;;
30307;SDS011;17114;52.314;8.910;2023-08-20T07:46:14;8.30;;;3.63;;
30307;SDS011;17114;52.314;8.910;2023-08-20T07:48:42;7.20;;;3.88;;
30307;SDS011;17114;52.314;8.910;2023-08-20T07:51:09;6.70;;;3.40;;
30307;SDS011;17114;52.314;8.910;2023-08-20T07:53:36;10.30;;;3.65;;
30307;SDS011;17114;52.314;8.910;2023-08-20T07:56:03;6.60;;;3.15;;
30307;SDS011;17114;52.314;8.910;2023-08-20T07:58:30;6.50;;;3.30;;
30307;SDS011;17114;52.314;8.910;2023-08-20T08:00:57;8.48;;;2.95;;
30307;SDS011;17114;52.314;8.910;2023-08-20T08:03:25;6.68;;;3.17;;
30307;SDS011;17114;52.314;8.910;2023-08-20T08:05:53;6.60;;;3.33;;
30307;SDS011;17114;52.314;8.910;2023-08-20T08:08:23;6.93;;;3.13;;
30307;SDS011;17114;52.314;8.910;2023-08-20T08:10:50;7.13;;;3.22;;
30307;SDS011;17114;52.314;8.910;2023-08-20T08:13:20;7.47;;;3.15;;
30307;SDS011;17114;52.314;8.910;2023-08-20T08:15:49;8.43;;;3.90;;
30307;SDS011;17114;52.314;8.910;2023-08-20T08:18:16;6.28;;;3.78;;
30307;SDS011;17114;52.314;8.910;2023-08-20T08:20:44;9.00;;;4.50;;
30307;SDS011;17114;52.314;8.910;2023-08-20T08:23:10;7.45;;;4.18;;
30307;SDS011;17114;52.314;8.910;2023-08-20T08:25:37;10.25;;;5.03;;
30307;SDS011;17114;52.314;8.910;2023-08-20T08:28:04;9.65;;;4.00;;
30307;SDS011;17114;52.314;8.910;2023-08-20T08:30:31;6.70;;;4.25;;
30307;SDS011;17114;52.314;8.910;2023-08-20T08:32:58;8.52;;;3.50;;
30307;SDS011;17114;52.314;8.910;2023-08-20T08:35:25;6.18;;;3.80;;
30307;SDS011;17114;52.314;8.910;2023-08-20T08:37:52;6.00;;;4.10;;
30307;SDS011;17114;52.314;8.910;2023-08-20T08:40:19;10.50;;;4.72;;
30307;SDS011;17114;52.314;8.910;2023-08-20T08:42:52;8.45;;;4.43;;
30307;SDS011;17114;52.314;8.910;2023-08-20T08:45:30;5.80;;;3.20;;
30307;SDS011;17114;52.314;8.910;2023-08-20T08:48:00;6.22;;;3.50;;
30307;SDS011;17114;52.314;8.910;2023-08-20T08:50:28;7.70;;;3.65;;
30307;SDS011;17114;52.314;8.910;2023-08-20T08:52:58;5.85;;;3.30;;
30307;SDS011;17114;52.314;8.910;2023-08-20T08:55:25;6.13;;;3.53;;
30307;SDS011;17114;52.314;8.910;2023-08-20T08:57:52;6.45;;;3.10;;
30307;SDS011;17114;52.314;8.910;2023-08-20T09:00:19;4.95;;;3.70;;
30307;SDS011;17114;52.314;8.910;2023-08-20T09:02:46;5.38;;;3.22;;
30307;SDS011;17114;52.314;8.910;2023-08-20T09:05:13;6.35;;;3.42;;
30307;SDS011;17114;52.314;8.910;2023-08-20T09:07:42;7.00;;;3.45;;
30307;SDS011;17114;52.314;8.910;2023-08-20T09:10:10;7.35;;;4.07;;
30307;SDS011;17114;52.314;8.910;2023-08-20T09:12:37;9.55;;;3.80;;
30307;SDS011;17114;52.314;8.910;2023-08-20T09:15:09;6.28;;;3.40;;
30307;SDS011;17114;52.314;8.910;2023-08-20T09:17:36;6.57;;;3.67;;
30307;SDS011;17114;52.314;8.910;2023-08-20T09:20:04;6.63;;;3.92;;
30307;SDS011;17114;52.314;8.910;2023-08-20T09:22:31;5.30;;;3.65;;
30307;SDS011;17114;52.314;8.910;2023-08-20T09:24:58;6.22;;;3.90;;
30307;SDS011;17114;52.314;8.910;2023-08-20T09:27:24;6.53;;;3.33;;
30307;SDS011;17114;52.314;8.910;2023-08-20T09:29:53;5.25;;;3.50;;
30307;SDS011;17114;52.314;8.910;2023-08-20T09:32:22;5.53;;;2.90;;
30307;SDS011;17114;52.314;8.910;2023-08-20T09:34:54;5.60;;;3.38;;
30307;SDS011;17114;52.314;8.910;2023-08-20T09:37:22;4.75;;;2.90;;
30307;SDS011;17114;52.314;8.910;2023-08-20T09:39:50;6.80;;;2.80;;
30307;SDS011;17114;52.314;8.910;2023-08-20T09:42:17;5.15;;;2.65;;
30307;SDS011;17114;52.314;8.910;2023-08-20T09:44:45;5.78;;;2.80;;
30307;SDS011;17114;52.314;8.910;2023-08-20T09:47:16;5.75;;;2.67;;
30307;SDS011;17114;52.314;8.910;2023-08-20T09:49:45;4.45;;;2.70;;
30307;SDS011;17114;52.314;8.910;2023-08-20T09:52:21;4.22;;;2.70;;
30307;SDS011;17114;52.314;8.910;2023-08-20T09:55:27;4.13;;;2.53;;
30307;SDS011;17114;52.314;8.910;2023-08-20T09:58:07;6.47;;;2.70;;
30307;SDS011;17114;52.314;8.910;2023-08-20T10:00:35;5.38;;;2.70;;
30307;SDS011;17114;52.314;8.910;2023-08-20T10:03:02;6.45;;;3.22;;
30307;SDS011;17114;52.314;8.910;2023-08-20T10:05:29;6.18;;;2.65;;
30307;SDS011;17114;52.314;8.910;2023-08-20T10:07:58;5.97;;;2.92;;
30307;SDS011;17114;52.314;8.910;2023-08-20T10:10:26;6.28;;;2.92;;
30307;SDS011;17114;52.314;8.910;2023-08-20T10:12:53;3.97;;;3.17;;
30307;SDS011;17114;52.314;8.910;2023-08-20T10:15:22;3.95;;;2.70;;
30307;SDS011;17114;52.314;8.910;2023-08-20T10:17:50;4.47;;;2.70;;
30307;SDS011;17114;52.314;8.910;2023-08-20T10:20:17;6.38;;;2.70;;
30307;SDS011;17114;52.314;8.910;2023-08-20T10:22:45;6.95;;;2.58;;
30307;SDS011;17114;52.314;8.910;2023-08-20T10:25:21;4.90;;;2.80;;
30307;SDS011;17114;52.314;8.910;2023-08-20T10:27:50;4.40;;;2.60;;
30307;SDS011;17114;52.314;8.910;2023-08-20T10:30:18;4.88;;;2.50;;
30307;SDS011;17114;52.314;8.910;2023-08-20T10:32:48;4.55;;;2.60;;
30307;SDS011;17114;52.314;8.910;2023-08-20T10:35:46;4.65;;;2.60;;
30307;SDS011;17114;52.314;8.910;2023-08-20T10:38:15;5.75;;;2.90;;
30307;SDS011;17114;52.314;8.910;2023-08-20T10:43:37;5.13;;;2.85;;
30307;SDS011;17114;52.314;8.910;2023-08-20T10:46:19;4.65;;;2.72;;
30307;SDS011;17114;52.314;8.910;2023-08-20T10:48:50;4.60;;;2.95;;
30307;SDS011;17114;52.314;8.910;2023-08-20T10:51:29;5.60;;;2.70;;
30307;SDS011;17114;52.314;8.910;2023-08-20T10:59:21;4.35;;;2.70;;
30307;SDS011;17114;52.314;8.910;2023-08-20T11:01:50;4.63;;;2.90;;
30307;SDS011;17114;52.314;8.910;2023-08-20T11:04:19;4.90;;;2.88;;
30307;SDS011;17114;52.314;8.910;2023-08-20T11:06:55;4.20;;;2.80;;
30307;SDS011;17114;52.314;8.910;2023-08-20T11:09:27;5.70;;;3.17;;
30307;SDS011;17114;52.314;8.910;2023-08-20T11:11:55;7.88;;;3.22;;
30307;SDS011;17114;52.314;8.910;2023-08-20T11:14:23;5.05;;;2.80;;
30307;SDS011;17114;52.314;8.910;2023-08-20T11:16:51;6.45;;;2.63;;
30307;SDS011;17114;52.314;8.910;2023-08-20T11:19:19;4.25;;;2.55;;
30307;SDS011;17114;52.314;8.910;2023-08-20T11:21:47;4.03;;;2.58;;
30307;SDS011;17114;52.314;8.910;2023-08-20T11:24:15;4.72;;;2.80;;
30307;SDS011;17114;52.314;8.910;2023-08-20T11:26:43;4.82;;;2.65;;
30307;SDS011;17114;52.314;8.910;2023-08-20T11:29:11;4.65;;;3.05;;
30307;SDS011;17114;52.314;8.910;2023-08-20T11:31:40;2.97;;;2.60;;
30307;SDS011;17114;52.314;8.910;2023-08-20T11:34:08;4.22;;;3.35;;
30307;SDS011;17114;52.314;8.910;2023-08-20T11:36:35;6.68;;;3.42;;
30307;SDS011;17114;52.314;8.910;2023-08-20T11:39:06;5.50;;;3.00;;
30307;SDS011;17114;52.314;8.910;2023-08-20T11:41:35;4.70;;;2.92;;
30307;SDS011;17114;52.314;8.910;2023-08-20T11:44:03;4.15;;;2.90;;
30307;SDS011;17114;52.314;8.910;2023-08-20T11:46:41;7.85;;;3.28;;
30307;SDS011;17114;52.314;8.910;2023-08-20T11:49:10;8.00;;;3.33;;
30307;SDS011;17114;52.314;8.910;2023-08-20T11:51:39;4.47;;;3.15;;
30307;SDS011;17114;52.314;8.910;2023-08-20T11:54:15;4.88;;;2.90;;
30307;SDS011;17114;52.314;8.910;2023-08-20T11:56:44;5.18;;;3.10;;
30307;SDS011;17114;52.314;8.910;2023-08-20T11:59:18;4.18;;;3.35;;
30307;SDS011;17114;52.314;8.910;2023-08-20T12:02:07;4.70;;;3.30;;
30307;SDS011;17114;52.314;8.910;2023-08-20T12:04:34;5.57;;;3.30;;
30307;SDS011;17114;52.314;8.910;2023-08-20T12:07:05;5.43;;;3.33;;
30307;SDS011;17114;52.314;8.910;2023-08-20T12:09:32;5.40;;;3.20;;
30307;SDS011;17114;52.314;8.910;2023-08-20T12:12:00;5.53;;;3.05;;
30307;SDS011;17114;52.314;8.910;2023-08-20T12:14:28;3.75;;;2.90;;
30307;SDS011;17114;52.314;8.910;2023-08-20T12:16:55;4.47;;;3.05;;
30307;SDS011;17114;52.314;8.910;2023-08-20T12:19:23;4.43;;;3.15;;
30307;SDS011;17114;52.314;8.910;2023-08-20T12:21:51;10.48;;;3.45;;
30307;SDS011;17114;52.314;8.910;2023-08-20T12:24:18;3.78;;;3.20;;
30307;SDS011;17114;52.314;8.910;2023-08-20T12:26:46;8.48;;;3.15;;
30307;SDS011;17114;52.314;8.910;2023-08-20T12:29:14;4.32;;;3.00;;
30307;SDS011;17114;52.314;8.910;2023-08-20T12:31:40;5.95;;;3.20;;
30307;SDS011;17114;52.314;8.910;2023-08-20T12:34:08;3.55;;;2.90;;
30307;SDS011;17114;52.314;8.910;2023-08-20T12:36:38;5.15;;;3.22;;
30307;SDS011;17114;52.314;8.910;2023-08-20T12:39:05;6.32;;;3.15;;
30307;SDS011;17114;52.314;8.910;2023-08-20T12:41:32;4.75;;;3.00;;
30307;SDS011;17114;52.314;8.910;2023-08-20T12:43:59;4.53;;;2.97;;
30307;SDS011;17114;52.314;8.910;2023-08-20T12:46:26;5.05;;;3.20;;
30307;SDS011;17114;52.314;8.910;2023-08-20T12:48:53;5.45;;;3.47;;
30307;SDS011;17114;52.314;8.910;2023-08-20T12:51:20;5.28;;;3.22;;
30307;SDS011;17114;52.314;8.910;2023-08-20T12:53:47;4.32;;;3.10;;
30307;SDS011;17114;52.314;8.910;2023-08-20T12:56:15;3.85;;;3.38;;
30307;SDS011;17114;52.314;8.910;2023-08-20T12:58:42;5.88;;;3.60;;
30307;SDS011;17114;52.314;8.910;2023-08-20T13:01:10;6.68;;;3.20;;
30307;SDS011;17114;52.314;8.910;2023-08-20T13:03:37;4.45;;;3.40;;
30307;SDS011;17114;52.314;8.910;2023-08-20T13:06:05;8.68;;;3.85;;
30307;SDS011;17114;52.314;8.910;2023-08-20T13:08:32;8.30;;;3.50;;
30307;SDS011;17114;52.314;8.910;2023-08-20T13:10:59;5.43;;;3.00;;
30307;SDS011;17114;52.314;8.910;2023-08-20T13:13:27;4.72;;;2.65;;
30307;SDS011;17114;52.314;8.910;2023-08-20T13:15:55;3.58;;;2.75;;
30307;SDS011;17114;52.314;8.910;2023-08-20T13:18:22;5.30;;;3.10;;
30307;SDS011;17114;52.314;8.910;2023-08-20T13:20:52;3.78;;;2.80;;
30307;SDS011;17114;52.314;8.910;2023-08-20T13:23:19;5.65;;;3.08;;
30307;SDS011;17114;52.314;8.910;2023-08-20T13:25:46;7.97;;;2.70;;
30307;SDS011;17114;52.314;8.910;2023-08-20T13:28:13;4.88;;;2.97;;
30307;SDS011;17114;52.314;8.910;2023-08-20T13:30:40;8.27;;;3.15;;
30307;SDS011;17114;52.314;8.910;2023-08-20T13:33:07;4.47;;;2.75;;
30307;SDS011;17114;52.314;8.910;2023-08-20T13:35:34;4.38;;;2.78;;
30307;SDS011;17114;52.314;8.910;2023-08-20T13:38:01;5.82;;;3.10;;
30307;SDS011;17114;52.314;8.910;2023-08-20T13:40:30;4.45;;;3.20;;
30307;SDS011;17114;52.314;8.910;2023-08-20T13:42:57;6.93;;;4.03;;
30307;SDS011;17114;52.314;8.910;2023-08-20T13:45:24;6.30;;;3.47;;
30307;SDS011;17114;52.314;8.910;2023-08-20T13:47:52;7.63;;;3.65;;
30307;SDS011;17114;52.314;8.910;2023-08-20T13:50:18;6.07;;;2.90;;
30307;SDS011;17114;52.314;8.910;2023-08-20T13:52:45;4.95;;;3.03;;
30307;SDS011;17114;52.314;8.910;2023-08-20T13:55:12;5.97;;;2.97;;
30307;SDS011;17114;52.314;8.910;2023-08-20T13:57:39;3.25;;;2.60;;
30307;SDS011;17114;52.314;8.910;2023-08-20T14:00:06;4.60;;;2.95;;
30307;SDS011;17114;52.314;8.910;2023-08-20T14:02:35;5.57;;;3.03;;
30307;SDS011;17114;52.314;8.910;2023-08-20T14:05:03;4.13;;;3.08;;
30307;SDS011;17114;52.314;8.910;2023-08-20T14:07:31;4.63;;;3.05;;
30307;SDS011;17114;52.314;8.910;2023-08-20T14:09:59;4.20;;;3.00;;
30307;SDS011;17114;52.314;8.910;2023-08-20T14:12:27;4.97;;;2.95;;
30307;SDS011;17114;52.314;8.910;2023-08-20T14:14:54;6.72;;;3.13;;
30307;SDS011;17114;52.314;8.910;2023-08-20T14:17:21;5.70;;;3.22;;
30307;SDS011;17114;52.314;8.910;2023-08-20T14:19:48;4.50;;;3.20;;
30307;SDS011;17114;52.314;8.910;2023-08-20T14:22:15;8.43;;;3.25;;
30307;SDS011;17114;52.314;8.910;2023-08-20T14:24:42;4.70;;;2.90;;
30307;SDS011;17114;52.314;8.910;2023-08-20T14:27:09;4.43;;;3.40;;
30307;SDS011;17114;52.314;8.910;2023-08-20T14:29:36;6.68;;;2.97;;
30307;SDS011;17114;52.314;8.910;2023-08-20T14:32:03;5.30;;;3.45;;
30307;SDS011;17114;52.314;8.910;2023-08-20T14:34:30;5.97;;;3.28;;
30307;SDS011;17114;52.314;8.910;2023-08-20T14:36:57;5.40;;;3.30;;
30307;SDS011;17114;52.314;8.910;2023-08-20T14:39:24;3.60;;;2.88;;
30307;SDS011;17114;52.314;8.910;2023-08-20T14:41:50;5.10;;;3.40;;
30307;SDS011;17114;52.314;8.910;2023-08-20T14:44:18;3.67;;;3.17;;
30307;SDS011;17114;52.314;8.910;2023-08-20T14:46:44;3.88;;;2.88;;
30307;SDS011;17114;52.314;8.910;2023-08-20T14:49:11;4.05;;;3.28;;
30307;SDS011;17114;52.314;8.910;2023-08-20T14:51:38;4.65;;;3.58;;
30307;SDS011;17114;52.314;8.910;2023-08-20T14:54:05;7.65;;;3.95;;
30307;SDS011;17114;52.314;8.910;2023-08-20T14:56:32;5.10;;;3.50;;
30307;SDS011;17114;52.314;8.910;2023-08-20T14:58:59;5.30;;;3.40;;
30307;SDS011;17114;52.314;8.910;2023-08-20T15:01:26;5.50;;;3.22;;
30307;SDS011;17114;52.314;8.910;2023-08-20T15:03:53;4.63;;;3.22;;
30307;SDS011;17114;52.314;8.910;2023-08-20T15:06:20;3.83;;;3.10;;